Time;durP1;ratioP1;P1;durP2;ratioP2;P2;SDS_P1;SDS_P2;PMS_P1;PMS_P2;Temp;Humidity;BMP_temperature;BMP_pressure;BME280_temperature;BME280_humidity;BME280_pressure;Samples;Min_cycle;Max_cycle;Signal;HPM_P1;HPM_P2
2021/03/25 00:01:15;;;;;;;32.10;17.40;;;8.00;82.90;;;;;;5096684;28;20032;-88
2021/03/25 00:03:42;;;;;;;34.45;18.38;;;8.00;83.00;;;;;;5099003;28;20115;-87
2021/03/25 00:06:08;;;;;;;33.70;18.73;;;8.00;83.00;;;;;;5097386;28;20036;-89
2021/03/25 00:08:34;;;;;;;34.53;18.67;;;8.00;83.00;;;;;;5098082;28;20044;-88
2021/03/25 00:10:59;;;;;;;33.92;19.10;;;7.90;83.10;;;;;;5097623;28;20051;-89
2021/03/25 00:13:25;;;;;;;35.42;18.25;;;7.90;83.20;;;;;;5096849;28;20101;-89
2021/03/25 00:15:51;;;;;;;36.20;19.48;;;7.90;83.20;;;;;;5097235;28;20035;-87
2021/03/25 00:18:16;;;;;;;36.58;18.77;;;7.80;83.30;;;;;;5097776;28;20074;-87
2021/03/25 00:20:43;;;;;;;32.08;17.02;;;7.80;83.30;;;;;;5098221;28;20455;-87
2021/03/25 00:23:10;;;;;;;36.88;17.98;;;7.80;83.60;;;;;;5097142;28;20126;-87
2021/03/25 00:25:37;;;;;;;38.80;18.33;;;7.80;83.70;;;;;;5097806;28;20403;-87
2021/03/25 00:28:04;;;;;;;35.70;18.33;;;7.80;83.90;;;;;;5096077;28;20093;-87
2021/03/25 00:30:31;;;;;;;31.98;17.00;;;7.70;83.80;;;;;;5087586;28;20032;-87
2021/03/25 00:32:59;;;;;;;36.10;16.90;;;7.60;83.90;;;;;;5096176;28;20158;-87
2021/03/25 00:35:25;;;;;;;36.13;17.42;;;7.60;84.00;;;;;;5097821;28;20075;-87
2021/03/25 00:37:51;;;;;;;31.95;17.60;;;7.60;84.10;;;;;;5096342;28;20038;-86
2021/03/25 00:40:17;;;;;;;31.67;16.38;;;7.60;84.00;;;;;;5097646;28;20039;-87
2021/03/25 00:42:42;;;;;;;29.90;16.23;;;7.60;84.20;;;;;;5098102;28;20035;-88
2021/03/25 00:45:12;;;;;;;29.17;15.63;;;7.50;84.10;;;;;;5096777;28;20035;-88
2021/03/25 00:47:38;;;;;;;32.47;16.30;;;7.50;84.20;;;;;;5096229;28;20110;-87
2021/03/25 00:50:12;;;;;;;29.23;17.10;;;7.50;84.20;;;;;;5101957;28;20042;-87
2021/03/25 00:52:38;;;;;;;34.72;16.95;;;7.50;84.20;;;;;;5118065;28;20102;-87
2021/03/25 00:55:05;;;;;;;30.80;16.23;;;7.50;84.10;;;;;;5097815;28;20044;-88
2021/03/25 00:57:30;;;;;;;28.60;16.45;;;7.50;84.10;;;;;;5096594;28;20032;-87
2021/03/25 00:59:56;;;;;;;28.50;16.00;;;7.50;84.10;;;;;;5095794;28;20088;-88
2021/03/25 01:02:22;;;;;;;28.88;15.82;;;7.50;84.00;;;;;;5096420;28;20047;-88
2021/03/25 01:04:47;;;;;;;29.20;16.35;;;7.50;84.10;;;;;;5096216;28;20125;-88
2021/03/25 01:07:21;;;;;;;31.85;15.30;;;7.50;84.10;;;;;;5096435;28;20115;-89
2021/03/25 01:09:47;;;;;;;24.92;13.80;;;7.50;84.10;;;;;;5096143;28;20044;-89
2021/03/25 01:12:12;;;;;;;27.58;14.88;;;7.40;84.00;;;;;;5095935;28;20047;-89
2021/03/25 01:14:38;;;;;;;28.83;15.45;;;7.40;83.90;;;;;;5096174;28;20031;-89
2021/03/25 01:17:05;;;;;;;28.38;14.60;;;7.40;83.90;;;;;;5095754;28;20063;-88
2021/03/25 01:19:32;;;;;;;29.33;15.43;;;7.40;83.90;;;;;;5097518;28;20371;-88
2021/03/25 01:21:59;;;;;;;28.35;13.32;;;7.40;83.90;;;;;;5096886;28;20569;-89
2021/03/25 01:24:25;;;;;;;27.02;15.40;;;7.40;83.90;;;;;;5096704;28;20040;-88
2021/03/25 01:26:51;;;;;;;27.55;13.80;;;7.40;83.80;;;;;;5095646;28;20036;-88
2021/03/25 01:29:17;;;;;;;27.95;14.00;;;7.40;83.80;;;;;;5096125;28;20040;-89
2021/03/25 01:31:43;;;;;;;32.35;15.02;;;7.30;83.50;;;;;;5095738;28;20047;-88
2021/03/25 01:34:12;;;;;;;26.95;14.52;;;7.30;83.60;;;;;;5096151;28;20101;-89
2021/03/25 01:36:38;;;;;;;28.80;14.40;;;7.30;83.70;;;;;;5095951;28;20044;-87
2021/03/25 01:39:04;;;;;;;28.08;14.88;;;7.30;84.00;;;;;;5096117;28;20027;-88
2021/03/25 01:41:32;;;;;;;27.67;15.18;;;7.30;83.90;;;;;;5095817;28;20046;-88
2021/03/25 01:43:57;;;;;;;29.55;14.63;;;7.30;83.90;;;;;;5100295;28;20028;-87
2021/03/25 01:46:28;;;;;;;27.52;15.00;;;7.20;84.00;;;;;;5095593;28;20471;-88
2021/03/25 01:48:59;;;;;;;31.30;15.45;;;7.20;84.10;;;;;;5095881;28;20082;-89
2021/03/25 01:51:38;;;;;;;24.08;13.75;;;7.20;84.20;;;;;;5097217;28;20378;-89
2021/03/25 01:54:28;;;;;;;30.17;14.13;;;7.20;84.20;;;;;;5095866;28;20119;-89
2021/03/25 01:57:13;;;;;;;26.52;13.07;;;7.20;84.40;;;;;;5095088;28;20054;-87
2021/03/25 02:00:11;;;;;;;26.33;14.70;;;7.10;84.40;;;;;;5095473;28;20036;-87
2021/03/25 02:02:59;;;;;;;30.20;13.85;;;7.10;84.60;;;;;;5086578;28;20540;-86
2021/03/25 02:05:50;;;;;;;26.65;13.85;;;7.10;84.50;;;;;;5096105;28;20036;-87
2021/03/25 02:08:46;;;;;;;23.70;13.68;;;7.10;84.40;;;;;;5094839;28;20036;-88
2021/03/25 02:11:33;;;;;;;30.77;14.50;;;7.10;84.30;;;;;;5095534;28;20040;-87
2021/03/25 02:14:19;;;;;;;21.95;12.23;;;7.10;84.30;;;;;;5086175;28;20040;-87
2021/03/25 02:17:01;;;;;;;28.13;13.60;;;7.10;84.50;;;;;;5095588;28;20036;-88
2021/03/25 02:19:48;;;;;;;24.50;9.98;;;7.10;84.40;;;;;;5093328;28;20386;-88
2021/03/25 02:22:53;;;;;;;24.13;13.25;;;7.10;84.20;;;;;;5096256;28;20070;-87
2021/03/25 02:25:35;;;;;;;23.85;13.00;;;7.00;84.00;;;;;;5088816;28;20131;-88
2021/03/25 02:28:17;;;;;;;25.77;14.70;;;7.00;84.00;;;;;;5095534;28;20040;-89
2021/03/25 02:30:46;;;;;;;26.60;14.30;;;7.00;84.50;;;;;;5096569;28;20047;-88
2021/03/25 02:33:16;;;;;;;22.80;12.95;;;6.90;84.60;;;;;;5096037;28;20476;-88
2021/03/25 02:35:47;;;;;;;25.63;13.18;;;6.90;84.80;;;;;;5095091;28;20385;-87
2021/03/25 02:38:33;;;;;;;26.92;13.65;;;6.90;85.00;;;;;;5095273;28;20071;-88
2021/03/25 02:41:03;;;;;;;22.98;13.05;;;6.90;85.10;;;;;;5095644;28;20028;-87
2021/03/25 02:43:40;;;;;;;28.23;14.07;;;6.80;85.00;;;;;;5095513;28;20032;-88
2021/03/25 02:46:16;;;;;;;27.33;13.48;;;6.80;85.20;;;;;;5094509;28;20055;-87
2021/03/25 02:48:44;;;;;;;28.17;13.98;;;6.80;85.10;;;;;;5090478;28;20117;-88
2021/03/25 02:51:32;;;;;;;29.00;14.52;;;6.80;85.20;;;;;;5095241;28;20279;-87
2021/03/25 02:53:57;;;;;;;26.45;14.32;;;6.80;85.10;;;;;;5091336;28;20040;-87
2021/03/25 02:56:29;;;;;;;27.13;13.43;;;6.80;84.90;;;;;;5095834;28;20055;-87
2021/03/25 02:59:21;;;;;;;24.20;14.32;;;6.80;85.00;;;;;;5091957;28;20131;-88
2021/03/25 03:01:51;;;;;;;25.42;14.13;;;6.80;85.00;;;;;;5095944;28;20047;-87
2021/03/25 03:04:24;;;;;;;26.73;13.82;;;6.80;85.10;;;;;;5111088;28;20028;-88
2021/03/25 03:06:54;;;;;;;25.15;13.15;;;6.80;85.10;;;;;;5095366;28;20036;-87
2021/03/25 03:09:33;;;;;;;22.77;12.30;;;6.80;85.10;;;;;;5096231;28;20054;-88
2021/03/25 03:12:00;;;;;;;24.52;13.75;;;6.80;85.00;;;;;;5097503;28;20121;-87
2021/03/25 03:14:36;;;;;;;26.38;12.75;;;6.80;85.10;;;;;;5099837;28;20436;-87
2021/03/25 03:17:25;;;;;;;24.92;12.98;;;6.80;85.10;;;;;;5094692;28;20074;-88
2021/03/25 03:20:24;;;;;;;25.58;12.63;;;6.70;85.10;;;;;;5100301;28;20050;-89
2021/03/25 03:22:52;;;;;;;29.88;12.82;;;6.70;85.00;;;;;;5098248;28;20043;-87
2021/03/25 03:25:22;;;;;;;24.25;13.52;;;6.70;85.30;;;;;;5098615;28;20079;-88
2021/03/25 03:28:01;;;;;;;26.70;13.02;;;6.60;85.30;;;;;;5097686;28;20040;-87
2021/03/25 03:30:34;;;;;;;24.80;13.23;;;6.60;85.30;;;;;;5097946;28;20416;-87
2021/03/25 03:33:23;;;;;;;25.05;13.27;;;6.60;85.80;;;;;;5099057;28;20051;-88
2021/03/25 03:35:58;;;;;;;25.23;13.38;;;6.60;86.00;;;;;;5097454;28;20318;-87
2021/03/25 03:38:32;;;;;;;27.83;13.52;;;6.60;85.90;;;;;;5097919;28;20032;-87
2021/03/25 03:40:59;;;;;;;28.63;13.38;;;6.60;85.80;;;;;;5098099;28;20043;-87
2021/03/25 03:43:25;;;;;;;28.92;14.88;;;6.60;86.00;;;;;;5097681;28;20028;-88
2021/03/25 03:45:58;;;;;;;24.95;13.18;;;6.60;86.10;;;;;;5097538;28;20076;-87
2021/03/25 03:48:40;;;;;;;24.83;12.40;;;6.60;86.40;;;;;;5097742;28;20043;-88
2021/03/25 03:51:11;;;;;;;17.08;10.52;;;6.60;86.10;;;;;;5097943;28;20120;-87
2021/03/25 03:53:39;;;;;;;25.88;13.13;;;6.50;86.20;;;;;;5097664;28;20051;-88
2021/03/25 03:56:28;;;;;;;24.95;13.60;;;6.50;86.20;;;;;;5096783;28;20078;-86
2021/03/25 03:58:57;;;;;;;22.17;12.18;;;6.50;86.20;;;;;;5098185;28;20032;-87
2021/03/25 04:01:41;;;;;;;22.33;12.40;;;6.50;86.40;;;;;;5098281;28;20084;-87
2021/03/25 04:04:16;;;;;;;29.65;14.93;;;6.50;86.30;;;;;;5102619;28;20032;-87
2021/03/25 04:06:46;;;;;;;22.67;13.15;;;6.50;86.50;;;;;;5101407;28;20039;-88
2021/03/25 04:09:24;;;;;;;26.25;14.23;;;6.40;86.50;;;;;;5103479;28;20035;-87
2021/03/25 04:11:56;;;;;;;27.15;14.75;;;6.40;86.40;;;;;;5099512;28;20055;-87
2021/03/25 04:14:26;;;;;;;30.65;14.45;;;6.40;86.30;;;;;;5096814;28;20047;-87
2021/03/25 04:16:54;;;;;;;22.40;12.25;;;6.40;86.40;;;;;;5096815;28;20031;-88
2021/03/25 04:19:27;;;;;;;28.45;15.20;;;6.40;86.70;;;;;;5098199;28;20032;-87
2021/03/25 04:22:05;;;;;;;24.02;12.82;;;6.40;86.80;;;;;;5096044;28;20350;-86
2021/03/25 04:24:38;;;;;;;28.15;13.75;;;6.40;86.80;;;;;;5097603;28;20043;-88
2021/03/25 04:27:07;;;;;;;24.98;13.30;;;6.30;86.80;;;;;;5094763;28;20461;-87
2021/03/25 04:29:41;;;;;;;26.33;12.82;;;6.40;86.80;;;;;;5096798;28;20290;-87
2021/03/25 04:32:08;;;;;;;30.27;14.18;;;6.40;86.70;;;;;;5097231;28;20137;-88
2021/03/25 04:34:33;;;;;;;25.65;13.57;;;6.40;86.70;;;;;;5097764;28;20042;-87
2021/03/25 04:37:01;;;;;;;29.45;14.52;;;6.40;87.10;;;;;;5096721;28;20043;-87
2021/03/25 04:39:27;;;;;;;34.65;14.13;;;6.40;87.20;;;;;;5096782;28;20043;-87
2021/03/25 04:41:55;;;;;;;30.13;13.88;;;6.30;87.00;;;;;;5102921;28;20047;-87
2021/03/25 04:44:32;;;;;;;25.85;13.27;;;6.30;87.10;;;;;;5112107;28;20119;-87
2021/03/25 04:47:25;;;;;;;25.75;12.75;;;6.30;87.00;;;;;;5096441;28;20050;-88
2021/03/25 04:50:13;;;;;;;25.90;12.93;;;6.30;87.00;;;;;;5088275;28;20036;-87
2021/03/25 04:52:39;;;;;;;26.90;12.82;;;6.30;87.00;;;;;;5097001;28;20071;-89
2021/03/25 04:55:19;;;;;;;25.45;13.18;;;6.20;86.80;;;;;;5096593;28;20044;-88
2021/03/25 04:58:16;;;;;;;24.35;11.73;;;6.20;87.10;;;;;;5096045;28;20028;-88
2021/03/25 05:00:42;;;;;;;28.73;14.20;;;6.20;87.30;;;;;;5066829;28;20085;-88
2021/03/25 05:03:15;;;;;;;30.30;13.88;;;6.20;87.60;;;;;;5096602;28;20432;-88
2021/03/25 05:05:41;;;;;;;21.70;13.43;;;6.20;87.60;;;;;;5096869;28;20405;-88
2021/03/25 05:08:19;;;;;;;27.50;14.85;;;6.20;87.70;;;;;;5096796;28;20059;-88
2021/03/25 05:10:58;;;;;;;26.63;13.95;;;6.20;87.80;;;;;;5095729;28;20062;-88
2021/03/25 05:13:29;;;;;;;25.67;12.63;;;6.20;87.70;;;;;;5096532;28;20130;-88
2021/03/25 05:16:21;;;;;;;26.23;12.82;;;6.10;87.50;;;;;;5095358;28;20086;-86
2021/03/25 05:19:15;;;;;;;29.08;13.27;;;6.10;87.40;;;;;;5094315;28;20050;-88
2021/03/25 05:21:55;;;;;;;30.58;13.27;;;6.10;87.30;;;;;;5096284;28;20062;-86
2021/03/25 05:24:30;;;;;;;27.60;13.13;;;6.10;87.50;;;;;;5096422;28;20081;-86
2021/03/25 05:27:02;;;;;;;30.92;13.63;;;6.10;87.60;;;;;;5088843;28;20036;-88
2021/03/25 05:29:29;;;;;;;29.30;13.45;;;6.10;87.90;;;;;;5074004;28;20036;-86
2021/03/25 05:31:56;;;;;;;27.40;13.00;;;6.10;88.10;;;;;;5090542;28;20389;-88
2021/03/25 05:34:24;;;;;;;29.40;14.60;;;6.10;88.20;;;;;;5094436;28;20110;-88
2021/03/25 05:36:56;;;;;;;28.80;14.43;;;6.20;88.20;;;;;;5094921;28;20074;-88
2021/03/25 05:39:23;;;;;;;33.77;14.43;;;6.20;88.30;;;;;;5094722;28;20095;-87
2021/03/25 05:41:52;;;;;;;28.40;13.75;;;6.20;88.20;;;;;;5094016;28;20359;-87
2021/03/25 05:44:31;;;;;;;27.95;13.43;;;6.20;88.20;;;;;;5094633;28;20036;-88
2021/03/25 05:47:29;;;;;;;28.88;14.52;;;6.20;88.20;;;;;;5093721;28;20587;-87
2021/03/25 05:50:09;;;;;;;33.13;13.52;;;6.30;88.00;;;;;;5093817;28;20039;-86
2021/03/25 05:52:45;;;;;;;22.23;12.35;;;6.30;87.70;;;;;;5095837;28;20035;-87
2021/03/25 05:55:37;;;;;;;24.83;12.55;;;6.40;87.70;;;;;;5092601;28;20039;-88
2021/03/25 05:58:39;;;;;;;22.48;12.95;;;6.40;87.30;;;;;;5065600;28;20075;-88
2021/03/25 06:01:53;;;;;;;25.85;12.77;;;6.50;87.10;;;;;;5093092;28;20115;-87
2021/03/25 06:04:23;;;;;;;24.88;12.45;;;6.50;86.70;;;;;;5088202;28;21357;-88
2021/03/25 06:07:16;;;;;;;22.45;12.98;;;6.60;86.50;;;;;;5093549;28;20051;-88
2021/03/25 06:10:19;;;;;;;29.42;12.38;;;6.60;86.40;;;;;;5074219;28;20040;-88
2021/03/25 06:13:09;;;;;;;23.40;13.00;;;6.70;86.30;;;;;;5093712;28;20046;-89
2021/03/25 06:16:12;;;;;;;22.50;11.75;;;6.70;86.10;;;;;;5093678;28;20126;-88
2021/03/25 06:19:19;;;;;;;24.85;12.50;;;6.80;86.00;;;;;;5093274;28;20050;-88
2021/03/25 06:22:03;;;;;;;22.73;12.07;;;6.90;85.50;;;;;;5070227;28;20036;-87
2021/03/25 06:24:51;;;;;;;25.85;11.98;;;7.00;85.30;;;;;;5073466;28;20570;-89
2021/03/25 06:27:44;;;;;;;26.00;12.77;;;7.00;85.60;;;;;;5085504;28;20040;-88
2021/03/25 06:30:17;;;;;;;26.23;11.85;;;7.00;85.40;;;;;;5091497;28;20049;-86
2021/03/25 06:33:09;;;;;;;28.00;12.52;;;7.10;85.30;;;;;;5091283;28;20437;-87
2021/03/25 06:35:49;;;;;;;25.50;13.48;;;7.10;85.40;;;;;;5093436;28;20040;-87
2021/03/25 06:38:19;;;;;;;22.33;11.60;;;7.10;85.20;;;;;;5094882;28;20039;-88
2021/03/25 06:40:55;;;;;;;28.17;12.57;;;7.20;85.10;;;;;;5095036;28;20040;-87
2021/03/25 06:43:34;;;;;;;25.33;13.88;;;7.30;84.70;;;;;;5094045;28;20143;-89
2021/03/25 06:46:13;;;;;;;23.30;12.73;;;7.30;84.70;;;;;;5098233;28;20040;-88
2021/03/25 06:49:00;;;;;;;27.33;13.75;;;7.40;84.20;;;;;;5094692;28;20093;-87
2021/03/25 06:51:30;;;;;;;23.83;12.77;;;7.50;84.10;;;;;;5097354;28;20101;-88
2021/03/25 06:54:10;;;;;;;25.95;13.23;;;7.60;83.80;;;;;;5097537;28;20393;-88
2021/03/25 06:56:41;;;;;;;26.63;13.05;;;7.60;83.40;;;;;;5096272;28;20039;-87
2021/03/25 06:59:17;;;;;;;24.90;13.02;;;7.60;83.00;;;;;;5095512;28;20032;-88
2021/03/25 07:01:50;;;;;;;25.60;12.23;;;7.70;82.50;;;;;;5097300;28;20158;-87
2021/03/25 07:04:25;;;;;;;23.17;12.88;;;7.80;82.60;;;;;;5092714;28;20028;-88
2021/03/25 07:06:55;;;;;;;24.92;13.20;;;7.90;81.80;;;;;;5091769;28;20036;-89
2021/03/25 07:09:26;;;;;;;27.90;13.40;;;8.00;81.20;;;;;;5100168;28;20412;-88
2021/03/25 07:11:53;;;;;;;22.95;12.32;;;8.20;80.80;;;;;;5094364;28;20040;-88
2021/03/25 07:14:26;;;;;;;22.40;11.88;;;8.20;81.10;;;;;;5087355;28;20074;-89
2021/03/25 07:16:52;;;;;;;24.77;13.02;;;8.30;80.80;;;;;;5098402;28;20054;-90
2021/03/25 07:19:23;;;;;;;24.38;12.65;;;8.40;81.00;;;;;;5097667;28;20032;-89
2021/03/25 07:22:13;;;;;;;21.95;12.05;;;8.50;80.60;;;;;;5098201;28;20125;-89
2021/03/25 07:24:39;;;;;;;24.83;12.15;;;8.60;80.20;;;;;;5097530;28;20368;-89
2021/03/25 07:27:13;;;;;;;22.02;11.50;;;8.70;79.30;;;;;;5097005;28;20032;-88
2021/03/25 07:29:43;;;;;;;22.55;12.35;;;8.80;80.00;;;;;;5097009;28;20054;-89
2021/03/25 07:32:08;;;;;;;21.02;12.38;;;8.90;79.30;;;;;;5098427;28;20035;-89
2021/03/25 07:34:38;;;;;;;28.52;12.18;;;9.00;79.40;;;;;;5098060;28;20105;-89
2021/03/25 07:37:07;;;;;;;27.83;13.25;;;9.10;80.10;;;;;;5096893;28;20334;-88
2021/03/25 07:39:40;;;;;;;23.90;12.63;;;9.10;78.10;;;;;;5096653;28;20067;-88
2021/03/25 07:42:07;;;;;;;23.50;12.52;;;9.20;78.30;;;;;;5098008;28;20039;-88
2021/03/25 07:44:40;;;;;;;23.40;12.32;;;9.20;78.50;;;;;;5097506;28;20032;-88
2021/03/25 07:47:42;;;;;;;20.05;11.63;;;9.30;77.10;;;;;;5096753;28;20397;-88
2021/03/25 07:50:29;;;;;;;15.20;9.38;;;9.40;78.30;;;;;;5096535;28;20259;-88
2021/03/25 07:52:55;;;;;;;24.88;12.15;;;9.50;78.00;;;;;;5096584;28;20665;-89
2021/03/25 07:55:21;;;;;;;23.30;12.05;;;9.50;77.00;;;;;;5095278;28;20418;-89
2021/03/25 07:57:51;;;;;;;23.45;11.25;;;9.50;77.30;;;;;;5096297;28;20066;-89
2021/03/25 08:00:32;;;;;;;22.20;11.15;;;9.60;76.40;;;;;;5097085;28;20394;-88
2021/03/25 08:03:17;;;;;;;29.98;12.93;;;9.70;76.40;;;;;;5096275;28;20290;-88
2021/03/25 08:05:44;;;;;;;24.02;11.82;;;9.70;75.90;;;;;;5097211;28;20074;-88
2021/03/25 08:08:30;;;;;;;19.60;11.35;;;9.90;76.30;;;;;;5096423;28;20050;-89
2021/03/25 08:11:14;;;;;;;26.13;12.27;;;10.00;75.60;;;;;;5076210;28;20040;-88
2021/03/25 08:13:58;;;;;;;24.35;12.07;;;10.20;74.40;;;;;;5092538;28;20078;-89
2021/03/25 08:16:31;;;;;;;24.75;11.77;;;10.30;73.90;;;;;;5103874;28;20048;-89
2021/03/25 08:19:05;;;;;;;24.67;12.43;;;10.40;74.20;;;;;;5096377;28;20024;-88
2021/03/25 08:22:01;;;;;;;22.02;12.27;;;10.50;74.70;;;;;;5097497;28;20040;-88
2021/03/25 08:25:01;;;;;;;24.77;12.50;;;10.60;73.50;;;;;;5096632;28;20032;-89
2021/03/25 08:27:48;;;;;;;26.05;12.95;;;10.80;74.10;;;;;;5095721;28;20188;-88
2021/03/25 08:30:47;;;;;;;28.15;12.30;;;10.90;74.70;;;;;;5095572;28;20031;-88
2021/03/25 08:33:18;;;;;;;24.50;11.40;;;11.10;72.10;;;;;;5083576;28;20040;-88
2021/03/25 08:35:57;;;;;;;22.98;12.40;;;11.20;72.10;;;;;;5085476;28;20044;-87
2021/03/25 08:38:32;;;;;;;22.25;12.02;;;11.40;71.80;;;;;;5095478;28;20448;-89
2021/03/25 08:41:08;;;;;;;28.00;13.52;;;11.50;70.50;;;;;;5096036;28;20142;-89
2021/03/25 08:43:52;;;;;;;21.25;11.73;;;11.60;69.90;;;;;;5095548;28;20438;-88
2021/03/25 08:46:27;;;;;;;24.02;11.55;;;11.70;70.70;;;;;;5096264;28;20040;-89
2021/03/25 08:48:59;;;;;;;21.58;11.02;;;11.90;70.90;;;;;;5095866;28;20135;-88
2021/03/25 08:51:36;;;;;;;24.42;11.05;;;12.00;69.60;;;;;;5096412;28;20482;-88
2021/03/25 08:54:11;;;;;;;23.83;12.35;;;12.10;69.50;;;;;;5094904;28;20051;-89
2021/03/25 08:56:45;;;;;;;19.05;11.68;;;12.30;71.20;;;;;;5095821;28;20322;-88
2021/03/25 08:59:13;;;;;;;27.20;11.98;;;12.50;69.00;;;;;;5095546;28;20043;-90
2021/03/25 09:01:45;;;;;;;24.13;12.77;;;12.60;68.10;;;;;;5095960;28;20061;-89
2021/03/25 09:04:12;;;;;;;24.25;13.07;;;12.80;68.30;;;;;;5086704;28;20028;-89
2021/03/25 09:06:41;;;;;;;25.25;13.00;;;13.00;67.70;;;;;;5095637;28;20044;-90
2021/03/25 09:09:32;;;;;;;22.25;11.32;;;13.10;67.90;;;;;;5095193;28;20035;-91
2021/03/25 09:11:59;;;;;;;22.63;12.63;;;13.30;66.70;;;;;;5097115;28;20110;-91
2021/03/25 09:14:26;;;;;;;26.23;12.40;;;13.40;65.00;;;;;;5097502;28;20040;-90
2021/03/25 09:17:01;;;;;;;24.20;12.65;;;13.60;64.60;;;;;;5096071;28;20700;-90
2021/03/25 09:19:37;;;;;;;29.70;14.00;;;13.70;64.00;;;;;;5095756;28;20035;-89
2021/03/25 09:22:03;;;;;;;28.70;12.20;;;13.80;63.60;;;;;;5095497;28;20283;-89
2021/03/25 09:24:29;;;;;;;24.45;12.13;;;13.90;63.20;;;;;;5096145;28;20098;-88
2021/03/25 09:27:02;;;;;;;33.78;13.20;;;14.00;63.40;;;;;;5096778;28;20097;-90
2021/03/25 09:29:32;;;;;;;27.98;13.57;;;14.10;62.60;;;;;;5095114;28;20040;-90
2021/03/25 09:31:57;;;;;;;24.38;12.55;;;14.10;63.80;;;;;;5095448;28;20721;-91
2021/03/25 09:34:22;;;;;;;28.30;13.20;;;14.10;62.50;;;;;;5095788;28;20043;-91
2021/03/25 09:37:00;;;;;;;27.17;13.20;;;14.30;63.50;;;;;;5096642;28;20040;-90
2021/03/25 09:39:37;;;;;;;27.27;12.13;;;14.40;63.80;;;;;;5095681;28;20105;-89
2021/03/25 09:42:25;;;;;;;27.35;13.88;;;14.50;62.30;;;;;;5096260;28;20032;-90
2021/03/25 09:44:51;;;;;;;26.33;13.30;;;14.70;62.70;;;;;;5096434;28;20035;-90
2021/03/25 09:47:36;;;;;;;30.23;13.88;;;14.80;62.40;;;;;;5095408;28;20044;-90
2021/03/25 09:50:03;;;;;;;24.77;13.05;;;14.90;62.00;;;;;;5095685;28;20040;-90
2021/03/25 09:52:40;;;;;;;22.73;11.77;;;15.00;61.90;;;;;;5103699;28;20039;-89
2021/03/25 09:55:06;;;;;;;25.08;12.27;;;15.10;63.30;;;;;;5109410;28;20050;-90
2021/03/25 09:57:31;;;;;;;27.50;13.57;;;15.00;63.90;;;;;;5101938;28;20035;-88
2021/03/25 10:00:03;;;;;;;24.98;12.45;;;15.10;63.70;;;;;;5099076;28;20039;-90
2021/03/25 10:02:40;;;;;;;28.05;13.68;;;15.20;61.90;;;;;;5096916;28;20043;-90
2021/03/25 10:05:25;;;;;;;25.65;12.75;;;15.20;61.50;;;;;;5096707;28;20036;-90
2021/03/25 10:07:55;;;;;;;25.30;12.73;;;15.30;61.80;;;;;;5091825;28;20047;-90
2021/03/25 10:10:36;;;;;;;24.30;13.50;;;15.40;62.00;;;;;;5106189;28;20040;-90
2021/03/25 10:13:02;;;;;;;25.90;13.20;;;15.50;61.10;;;;;;5101694;28;20097;-91
2021/03/25 10:15:27;;;;;;;28.05;13.00;;;15.60;61.20;;;;;;5096350;28;20036;-91
2021/03/25 10:17:54;;;;;;;29.52;12.82;;;15.60;62.40;;;;;;5095860;28;20068;-89
2021/03/25 10:20:57;;;;;;;24.80;12.27;;;15.70;62.10;;;;;;5096561;28;20031;-89
2021/03/25 10:23:28;;;;;;;28.50;14.10;;;15.90;62.40;;;;;;5085284;28;20035;-91
2021/03/25 10:26:01;;;;;;;26.25;12.05;;;16.00;60.70;;;;;;5096740;28;20101;-91
2021/03/25 10:28:29;;;;;;;31.40;15.18;;;16.00;60.50;;;;;;5097357;28;20039;-91
2021/03/25 10:31:06;;;;;;;27.27;13.55;;;16.10;61.50;;;;;;5096678;28;20051;-91
2021/03/25 10:33:35;;;;;;;24.77;12.50;;;16.30;61.70;;;;;;5096610;28;20124;-91
2021/03/25 10:36:11;;;;;;;26.63;13.60;;;16.30;61.90;;;;;;5097309;28;20052;-91
2021/03/25 10:38:51;;;;;;;34.40;15.32;;;16.40;59.50;;;;;;5096501;28;20399;-91
2021/03/25 10:41:20;;;;;;;35.00;13.48;;;16.40;60.60;;;;;;5097487;28;20044;-91
2021/03/25 10:43:50;;;;;;;27.27;13.52;;;16.40;59.70;;;;;;5096700;28;20074;-91
2021/03/25 10:46:37;;;;;;;28.00;13.25;;;16.50;59.10;;;;;;5112692;28;20058;-92
2021/03/25 10:49:09;;;;;;;33.25;14.48;;;16.50;59.10;;;;;;5095748;28;20036;-91
2021/03/25 10:51:41;;;;;;;30.17;13.57;;;16.60;59.50;;;;;;5096625;28;20036;-92
2021/03/25 10:54:20;;;;;;;29.85;14.23;;;16.70;59.50;;;;;;5099999;28;20036;-92
2021/03/25 10:56:46;;;;;;;27.65;13.38;;;16.80;59.10;;;;;;5096950;28;20035;-92
2021/03/25 10:59:14;;;;;;;30.73;13.98;;;16.80;59.30;;;;;;5095889;28;20043;-92
2021/03/25 11:01:58;;;;;;;30.88;14.65;;;16.90;58.80;;;;;;5096445;28;20047;-93
2021/03/25 11:04:34;;;;;;;32.88;14.30;;;17.00;58.60;;;;;;5097071;28;20039;-91
2021/03/25 11:07:20;;;;;;;36.13;15.38;;;17.10;57.10;;;;;;5097597;28;20040;-93
2021/03/25 11:09:55;;;;;;;32.22;14.57;;;17.10;57.80;;;;;;5099415;28;20046;-93
2021/03/25 11:12:37;;;;;;;31.95;14.07;;;17.10;56.50;;;;;;5103324;28;20040;-92
2021/03/25 11:15:28;;;;;;;32.70;15.02;;;17.30;58.00;;;;;;5092985;28;20040;-92
2021/03/25 11:17:53;;;;;;;29.02;13.23;;;17.30;58.00;;;;;;5096358;28;20082;-92
2021/03/25 11:20:22;;;;;;;31.60;14.02;;;17.40;58.70;;;;;;5096509;28;20055;-92
2021/03/25 11:22:51;;;;;;;28.27;14.68;;;17.50;58.10;;;;;;5096574;28;20385;-92
2021/03/25 11:25:29;;;;;;;25.65;13.38;;;17.60;57.90;;;;;;5096616;28;20073;-93
2021/03/25 11:28:05;;;;;;;32.30;15.13;;;17.70;56.00;;;;;;5088408;28;20032;-93
2021/03/25 11:30:51;;;;;;;33.38;14.88;;;17.70;56.80;;;;;;5095800;28;20047;-92
2021/03/25 11:33:29;;;;;;;30.55;13.65;;;17.70;57.40;;;;;;5100390;28;20039;-93
2021/03/25 11:35:56;;;;;;;30.23;14.52;;;17.80;56.80;;;;;;5101491;28;20053;-93
2021/03/25 11:38:25;;;;;;;30.60;14.00;;;17.90;56.20;;;;;;5099225;28;20105;-93
2021/03/25 11:41:31;;;;;;;26.98;13.45;;;17.90;55.20;;;;;;5100074;28;20041;-93
2021/03/25 11:43:59;;;;;;;31.17;15.48;;;17.90;55.20;;;;;;5091965;28;20042;-93
2021/03/25 11:46:40;;;;;;;31.85;15.27;;;18.00;56.70;;;;;;5102151;28;20040;-87
2021/03/25 11:49:26;;;;;;;27.38;14.02;;;18.10;54.50;;;;;;5092022;28;20071;-93
2021/03/25 11:51:52;;;;;;;26.95;13.32;;;18.20;54.90;;;;;;5101018;28;20296;-94
2021/03/25 11:54:23;;;;;;;28.00;13.52;;;18.40;56.30;;;;;;5100281;28;20051;-91
2021/03/25 11:56:56;;;;;;;28.60;13.85;;;18.50;55.30;;;;;;5100673;28;20168;-92
2021/03/25 11:59:28;;;;;;;25.40;12.73;;;18.60;54.20;;;;;;5085451;28;20045;-92
2021/03/25 12:02:21;;;;;;;27.77;13.85;;;18.60;53.40;;;;;;5100393;28;20302;-93
2021/03/25 12:04:51;;;;;;;26.92;13.80;;;18.70;53.10;;;;;;5100736;28;20036;-93
2021/03/25 12:07:21;;;;;;;25.08;13.40;;;18.80;53.10;;;;;;5100039;28;20452;-93
2021/03/25 12:10:20;;;;;;;28.00;14.07;;;18.80;55.30;;;;;;5100267;28;20043;-93
2021/03/25 12:12:50;;;;;;;26.85;14.15;;;18.90;53.30;;;;;;5079968;28;20089;-94
2021/03/25 12:15:17;;;;;;;25.92;13.13;;;18.90;54.70;;;;;;5088617;28;20036;-95
2021/03/25 12:17:49;;;;;;;24.63;13.73;;;18.90;54.80;;;;;;5099336;28;20538;-94
2021/03/25 12:20:50;;;;;;;27.60;13.13;;;19.00;53.10;;;;;;5094702;28;20028;-95
2021/03/25 12:23:28;;;;;;;27.25;13.20;;;19.10;52.70;;;;;;5022991;28;20041;-94
2021/03/25 12:26:01;;;;;;;26.38;13.77;;;19.20;52.10;;;;;;5100615;28;20055;-94
2021/03/25 12:28:26;;;;;;;;;;;19.30;51.30;;;;;;5079818;28;20127;-95
2021/03/25 12:30:52;;;;;;;28.65;14.27;;;19.40;50.60;;;;;;5113815;28;19962;-95
2021/03/25 12:33:24;;;;;;;25.45;13.68;;;19.40;53.50;;;;;;5098386;28;20051;-95
2021/03/25 12:36:03;;;;;;;25.92;12.65;;;19.50;51.80;;;;;;5102238;28;20048;-92
2021/03/25 12:38:29;;;;;;;29.92;15.23;;;19.60;53.60;;;;;;5099079;28;20035;-93
2021/03/25 12:45:03;;;;;;;24.40;12.02;;;19.80;50.30;;;;;;5070894;28;20029;-93
2021/03/25 12:47:42;;;;;;;27.30;12.75;;;19.90;50.00;;;;;;5040710;28;20053;-93
2021/03/25 12:50:08;;;;;;;23.00;12.65;;;19.90;49.30;;;;;;5084714;28;20063;-94
2021/03/25 12:52:34;;;;;;;25.38;14.30;;;19.90;49.90;;;;;;5099402;28;20047;-94
2021/03/25 12:55:03;;;;;;;29.83;13.23;;;19.90;49.40;;;;;;5099153;28;20048;-94
2021/03/25 12:57:32;;;;;;;30.95;13.48;;;19.90;50.20;;;;;;5098579;28;20039;-93
2021/03/25 12:59:58;;;;;;;33.13;14.85;;;19.90;50.20;;;;;;5097829;28;20043;-95
2021/03/25 13:02:24;;;;;;;26.00;12.73;;;19.90;49.60;;;;;;5099529;28;20036;-93
2021/03/25 13:07:35;;;;;;;26.63;14.45;;;19.90;49.90;;;;;;5100017;28;20067;-92
2021/03/25 13:10:01;;;;;;;24.15;12.88;;;19.70;49.20;;;;;;5098942;28;20074;-93
2021/03/25 13:12:27;;;;;;;28.17;13.35;;;19.70;49.90;;;;;;5099329;28;20036;-92
2021/03/25 13:14:52;;;;;;;27.27;13.88;;;19.60;50.00;;;;;;5099147;28;20100;-93
2021/03/25 13:17:18;;;;;;;24.90;13.32;;;19.60;50.20;;;;;;5099092;28;20068;-94
2021/03/25 13:19:44;;;;;;;25.52;13.18;;;19.70;48.90;;;;;;5099210;28;20032;-94